Terminal Aerodrome Forecast
Issued by NWS Lake Charles, LA

Home | Current Version | Previous Version | Text Only | Print | Product List | Glossary On
Versions: 1 2 3 4 5 6 7 8 9 10 11 12 13 14 15 16 17 18 19 20 21
000
FTUS44 KLCH 201500 AAB
TAFARA
TAF AMD
KARA 201505Z 2015/2112 02010KT P6SM OVC005
      TEMPO 2016/2018 BKN005 OVC015
     FM201800 03011KT P6SM BKN015
     FM202200 03009KT P6SM SCT035=

USA.gov is the U.S. government's official web portal to all federal, state and local government web resources and services.